createdAt,value
2023-05-22T00:00:25.602Z,8.93
2023-05-22T00:01:58.000Z,9.85
2023-05-22T00:03:30.951Z,10.63
2023-05-22T00:05:03.697Z,12.50
2023-05-22T00:06:35.981Z,10.05
2023-05-22T00:08:14.143Z,10.32
2023-05-22T00:09:46.998Z,12.10
2023-05-22T00:11:19.330Z,10.90
2023-05-22T00:12:51.516Z,10.10
2023-05-22T00:14:23.739Z,10.15
2023-05-22T00:15:56.013Z,11.15
2023-05-22T00:17:31.086Z,11.55
2023-05-22T00:19:04.084Z,9.15
2023-05-22T00:20:39.619Z,9.27
2023-05-22T00:22:12.178Z,10.15
2023-05-22T00:23:44.358Z,11.88
2023-05-22T00:25:19.400Z,9.18
2023-05-22T00:26:51.551Z,11.52
2023-05-22T00:28:23.707Z,10.57
2023-05-22T00:29:55.921Z,12.60
2023-05-22T00:31:28.079Z,10.60
2023-05-22T00:33:00.264Z,11.23
2023-05-22T00:34:32.533Z,11.70
2023-05-22T00:36:05.110Z,14.55
2023-05-22T00:37:37.346Z,9.52
2023-05-22T00:39:10.237Z,10.75
2023-05-22T00:40:42.423Z,12.40
2023-05-22T00:42:14.539Z,11.57
2023-05-22T00:43:46.694Z,10.07
2023-05-22T00:45:18.889Z,10.35
2023-05-22T00:46:51.798Z,11.30
2023-05-22T00:48:24.538Z,12.23
2023-05-22T00:49:56.778Z,9.98
2023-05-22T00:51:29.031Z,10.30
2023-05-22T00:53:01.294Z,12.38
2023-05-22T00:54:33.733Z,10.90
2023-05-22T00:56:07.484Z,11.73
2023-05-22T00:57:42.943Z,9.57
2023-05-22T00:59:15.196Z,9.43
2023-05-22T01:00:47.947Z,10.15
2023-05-22T01:02:20.888Z,10.43
2023-05-22T01:03:54.226Z,9.82
2023-05-22T01:06:59.785Z,9.15
2023-05-22T01:08:32.008Z,10.88
2023-05-22T01:10:06.533Z,11.10
2023-05-22T01:12:10.026Z,11.23
2023-05-22T01:13:57.171Z,10.55
2023-05-22T01:15:41.471Z,10.95
2023-05-22T01:17:38.533Z,11.30
2023-05-22T01:19:54.379Z,12.05
2023-05-22T01:21:46.530Z,12.63
2023-05-22T01:23:27.686Z,12.40
2023-05-22T01:25:17.867Z,12.70
2023-05-22T01:27:26.286Z,13.75
2023-05-22T01:29:09.559Z,11.25
2023-05-22T01:31:01.693Z,10.85
2023-05-22T01:32:34.937Z,11.70
2023-05-22T01:34:12.183Z,11.95
2023-05-22T01:35:47.425Z,10.07
2023-05-22T01:37:24.204Z,10.57
2023-05-22T01:38:56.940Z,10.63
2023-05-22T01:40:29.975Z,17.42
2023-05-22T01:42:02.912Z,11.98
2023-05-22T01:43:36.517Z,11.85
2023-05-22T01:45:12.391Z,11.73
2023-05-22T01:46:44.572Z,11.27
2023-05-22T01:48:16.839Z,16.08
2023-05-22T01:49:49.039Z,11.45
2023-05-22T01:51:27.288Z,10.88
2023-05-22T01:53:14.346Z,10.35
2023-05-22T01:54:49.070Z,11.10
2023-05-22T01:56:31.370Z,11.02
2023-05-22T01:58:34.107Z,12.63
2023-05-22T02:00:11.728Z,11.13
2023-05-22T02:01:44.463Z,10.13
2023-05-22T02:03:21.061Z,13.00
2023-05-22T02:04:57.110Z,10.80
2023-05-22T02:06:33.833Z,12.02
2023-05-22T02:08:06.366Z,13.38
2023-05-22T02:09:39.671Z,10.15
2023-05-22T02:11:13.244Z,10.77
2023-05-22T02:12:45.610Z,13.13
2023-05-22T02:14:18.971Z,10.85
2023-05-22T02:17:23.973Z,13.60
2023-05-22T02:19:08.326Z,12.20
2023-05-22T02:20:41.191Z,10.02
2023-05-22T02:22:16.467Z,10.23
2023-05-22T02:23:48.623Z,10.50
2023-05-22T02:25:21.063Z,10.85
2023-05-22T02:26:53.165Z,12.50
2023-05-22T02:28:25.339Z,11.05
2023-05-22T02:29:57.616Z,12.18
2023-05-22T02:31:30.024Z,14.50
2023-05-22T02:33:06.014Z,11.75
2023-05-22T02:34:38.357Z,11.75
2023-05-22T02:36:11.316Z,14.40
2023-05-22T02:37:45.761Z,12.77
2023-05-22T02:39:20.888Z,10.63
2023-05-22T02:40:53.178Z,10.32
2023-05-22T02:42:25.387Z,11.02
2023-05-22T02:43:57.602Z,11.55
2023-05-22T02:45:30.280Z,13.23
2023-05-22T02:47:02.506Z,11.90
2023-05-22T02:48:34.752Z,10.73
2023-05-22T02:50:07.689Z,10.63
2023-05-22T02:51:39.967Z,12.05
2023-05-22T02:53:12.362Z,10.20
2023-05-22T02:54:44.786Z,10.68
2023-05-22T02:56:17.348Z,15.30
2023-05-22T02:57:49.562Z,10.05
2023-05-22T02:59:21.752Z,13.32
2023-05-22T03:00:54.742Z,11.98
2023-05-22T03:02:28.819Z,10.70
2023-05-22T03:04:01.255Z,9.75
2023-05-22T03:05:33.909Z,13.27
2023-05-22T03:07:07.647Z,12.18
2023-05-22T03:08:43.832Z,10.93
2023-05-22T03:10:16.094Z,8.90
2023-05-22T03:11:48.252Z,9.70
2023-05-22T03:13:20.451Z,11.07
2023-05-22T03:14:52.642Z,12.85
2023-05-22T03:16:25.465Z,11.05
2023-05-22T03:17:57.673Z,10.90
2023-05-22T03:19:29.915Z,12.40
2023-05-22T03:21:02.298Z,10.85
2023-05-22T03:22:34.430Z,15.23
2023-05-22T03:24:06.915Z,9.52
2023-05-22T03:25:39.096Z,11.23
2023-05-22T03:27:12.405Z,11.98
2023-05-22T03:28:44.676Z,11.13
2023-05-22T03:30:17.002Z,12.80
2023-05-22T03:31:49.282Z,10.63
2023-05-22T03:33:21.484Z,12.10
2023-05-22T03:34:54.026Z,11.18
2023-05-22T03:36:26.210Z,12.47
2023-05-22T03:37:58.411Z,11.23
2023-05-22T03:39:30.698Z,13.32
2023-05-22T03:41:03.203Z,10.50
2023-05-22T03:42:35.340Z,11.48
2023-05-22T03:44:07.480Z,13.57
2023-05-22T03:45:39.798Z,11.27
2023-05-22T03:47:12.224Z,13.15
2023-05-22T03:48:44.392Z,11.32
2023-05-22T03:50:16.567Z,12.77
2023-05-22T03:51:48.765Z,12.05
2023-05-22T03:53:21.624Z,9.60
2023-05-22T03:54:54.140Z,12.68
2023-05-22T03:56:27.014Z,11.80
2023-05-22T03:57:59.241Z,11.40
2023-05-22T03:59:31.574Z,11.60
2023-05-22T04:01:05.803Z,12.32
2023-05-22T04:02:40.604Z,10.88
2023-05-22T04:04:12.983Z,11.98
2023-05-22T04:05:45.626Z,12.35
2023-05-22T04:07:18.774Z,11.00
2023-05-22T04:08:51.070Z,15.43
2023-05-22T04:10:24.095Z,10.63
2023-05-22T04:11:56.435Z,10.90
2023-05-22T04:13:31.379Z,11.85
2023-05-22T04:15:03.712Z,12.43
2023-05-22T04:16:36.347Z,12.07
2023-05-22T04:18:08.920Z,13.52
2023-05-22T04:19:41.136Z,11.65
2023-05-22T04:21:13.365Z,12.93
2023-05-22T04:22:46.351Z,11.45
2023-05-22T04:24:19.031Z,12.40
2023-05-22T04:25:51.788Z,13.90
2023-05-22T04:27:23.998Z,11.82
2023-05-22T04:28:56.273Z,13.30
2023-05-22T04:30:28.400Z,11.57
2023-05-22T04:32:00.655Z,12.30
2023-05-22T04:33:34.869Z,15.93
2023-05-22T04:35:07.484Z,11.00
2023-05-22T04:36:39.619Z,12.73
2023-05-22T04:38:11.986Z,15.13
2023-05-22T04:39:46.040Z,11.15
2023-05-22T04:41:22.912Z,12.05
2023-05-22T04:42:55.122Z,14.30
2023-05-22T04:44:27.652Z,12.40
2023-05-22T04:45:59.907Z,14.40
2023-05-22T04:47:32.316Z,13.57
2023-05-22T04:49:06.901Z,13.53
2023-05-22T04:50:39.165Z,12.88
2023-05-22T04:52:12.114Z,11.27
2023-05-22T04:53:44.403Z,13.85
2023-05-22T04:55:16.750Z,13.75
2023-05-22T04:56:48.863Z,11.75
2023-05-22T04:58:22.407Z,11.85
2023-05-22T04:59:54.817Z,12.45
2023-05-22T05:01:29.905Z,13.13
2023-05-22T05:03:03.347Z,10.77
2023-05-22T05:04:35.627Z,13.63
2023-05-22T05:06:08.855Z,13.02
2023-05-22T05:07:41.136Z,12.93
2023-05-22T05:09:13.251Z,11.02
2023-05-22T05:10:45.485Z,13.02
2023-05-22T05:12:17.966Z,15.68
2023-05-22T05:13:50.295Z,13.67
2023-05-22T05:15:24.146Z,13.35
2023-05-22T05:16:57.400Z,15.23
2023-05-22T05:18:29.673Z,13.35
2023-05-22T05:20:02.079Z,14.80
2023-05-22T05:21:34.229Z,12.00
2023-05-22T05:23:06.538Z,12.70
2023-05-22T05:24:38.820Z,14.32
2023-05-22T05:26:11.190Z,11.95
2023-05-22T05:27:43.310Z,13.32
2023-05-22T05:29:15.516Z,13.85
2023-05-22T05:30:47.698Z,14.43
2023-05-22T05:32:19.995Z,11.48
2023-05-22T05:33:52.687Z,12.70
2023-05-22T05:35:25.422Z,11.85
2023-05-22T05:37:00.325Z,15.77
2023-05-22T05:38:32.578Z,10.52
2023-05-22T05:40:07.660Z,13.10
2023-05-22T05:41:39.895Z,13.07
2023-05-22T05:43:14.471Z,11.80
2023-05-22T05:44:46.756Z,11.80
2023-05-22T05:46:19.691Z,11.40
2023-05-22T05:49:24.665Z,13.18
2023-05-22T05:50:56.842Z,12.32
2023-05-22T05:52:32.921Z,11.88
2023-05-22T05:54:05.505Z,11.30
2023-05-22T05:55:38.028Z,13.30
2023-05-22T05:57:10.247Z,15.95
2023-05-22T05:58:42.490Z,11.43
2023-05-22T06:00:14.919Z,12.75
2023-05-22T06:01:47.690Z,13.93
2023-05-22T06:03:19.888Z,12.68
2023-05-22T06:04:52.120Z,12.07
2023-05-22T06:06:26.533Z,11.52
2023-05-22T06:07:59.341Z,12.52
2023-05-22T06:09:31.507Z,11.93
2023-05-22T06:11:03.928Z,11.60
2023-05-22T06:12:36.069Z,14.17
2023-05-22T06:14:09.214Z,13.70
2023-05-22T06:15:41.630Z,12.40
2023-05-22T06:17:13.914Z,12.32
2023-05-22T06:18:47.143Z,13.93
2023-05-22T06:20:19.571Z,12.55
2023-05-22T06:21:52.184Z,12.57
2023-05-22T06:23:24.572Z,13.43
2023-05-22T06:24:56.792Z,13.23
2023-05-22T06:26:29.174Z,11.95
2023-05-22T06:28:01.363Z,12.40
2023-05-22T06:29:33.554Z,12.73
2023-05-22T06:31:05.885Z,13.57
2023-05-22T06:32:38.291Z,12.77
2023-05-22T06:34:10.692Z,14.27
2023-05-22T06:35:43.560Z,12.35
2023-05-22T06:37:16.537Z,13.13
2023-05-22T06:38:50.006Z,13.50
2023-05-22T06:40:22.679Z,11.55
2023-05-22T06:41:54.883Z,14.63
2023-05-22T06:43:27.098Z,13.60
2023-05-22T06:44:59.309Z,12.95
2023-05-22T06:46:31.604Z,11.45
2023-05-22T06:48:04.347Z,12.77
2023-05-22T06:49:36.745Z,11.10
2023-05-22T06:51:11.903Z,12.05
2023-05-22T06:52:44.134Z,13.93
2023-05-22T06:54:16.363Z,11.00
2023-05-22T06:55:48.834Z,10.15
2023-05-22T06:57:21.858Z,10.40
2023-05-22T06:58:54.062Z,11.40
2023-05-22T07:00:26.281Z,9.77
2023-05-22T07:01:58.384Z,10.93
2023-05-22T07:03:30.704Z,9.68
2023-05-22T07:05:02.877Z,11.10
2023-05-22T07:06:39.436Z,10.40
2023-05-22T07:08:11.670Z,10.50
2023-05-22T07:09:43.948Z,10.48
2023-05-22T07:11:16.089Z,11.23
2023-05-22T07:12:48.385Z,9.90
2023-05-22T07:14:20.569Z,9.55
2023-05-22T07:15:52.717Z,10.93
2023-05-22T07:17:24.981Z,10.63
2023-05-22T07:18:57.573Z,11.15
2023-05-22T07:20:29.840Z,11.38
2023-05-22T07:22:02.285Z,9.95
2023-05-22T07:23:34.516Z,11.40
2023-05-22T07:25:07.252Z,23.13
2023-05-22T07:26:39.505Z,10.85
2023-05-22T07:28:12.001Z,10.60
2023-05-22T07:29:44.150Z,9.43
2023-05-22T07:31:16.815Z,10.20
2023-05-22T07:32:49.246Z,10.35
2023-05-22T07:34:21.522Z,11.10
2023-05-22T07:35:53.713Z,10.20
2023-05-22T07:37:26.070Z,9.63
2023-05-22T07:38:58.922Z,12.33
2023-05-22T07:40:31.025Z,9.85
2023-05-22T07:42:03.610Z,11.35
2023-05-22T07:43:35.877Z,10.63
2023-05-22T07:45:08.969Z,9.20
2023-05-22T07:46:41.533Z,10.82
2023-05-22T07:48:13.890Z,10.43
2023-05-22T07:49:46.256Z,9.63
2023-05-22T07:51:18.473Z,9.25
2023-05-22T07:54:23.600Z,10.43
2023-05-22T07:55:55.816Z,9.03
2023-05-22T07:57:30.003Z,9.93
2023-05-22T07:59:02.228Z,8.60
2023-05-22T08:00:34.653Z,8.50
2023-05-22T08:02:08.826Z,8.88
2023-05-22T08:03:41.197Z,10.25
2023-05-22T08:05:13.623Z,9.52
2023-05-22T08:06:45.921Z,10.07
2023-05-22T08:08:18.195Z,9.35
2023-05-22T08:09:50.343Z,9.70
2023-05-22T08:11:26.659Z,9.77
2023-05-22T08:13:02.780Z,8.60
2023-05-22T08:14:34.951Z,9.57
2023-05-22T08:16:07.473Z,8.32
2023-05-22T08:17:39.651Z,8.88
2023-05-22T08:19:12.028Z,8.00
2023-05-22T08:20:44.292Z,10.73
2023-05-22T08:22:16.613Z,9.05
2023-05-22T08:23:48.824Z,8.40
2023-05-22T08:25:21.177Z,9.40
2023-05-22T08:26:53.751Z,8.67
2023-05-22T08:28:26.021Z,8.27
2023-05-22T08:29:58.256Z,8.10
2023-05-22T08:31:30.497Z,8.43
2023-05-22T08:33:02.790Z,10.20
2023-05-22T08:34:36.032Z,10.13
2023-05-22T08:37:40.407Z,8.15
2023-05-22T08:39:13.027Z,8.18
2023-05-22T08:40:49.120Z,7.57
2023-05-22T08:42:21.350Z,8.10
2023-05-22T08:43:53.668Z,8.18
2023-05-22T08:45:26.618Z,7.90
2023-05-22T08:47:01.132Z,8.00
2023-05-22T08:48:33.805Z,9.13
2023-05-22T08:50:06.923Z,8.02
2023-05-22T08:51:40.589Z,9.10
2023-05-22T08:53:16.096Z,7.93
2023-05-22T08:54:53.519Z,8.20
2023-05-22T08:56:28.608Z,7.90
2023-05-22T08:58:01.834Z,9.18
2023-05-22T08:59:39.019Z,8.27
2023-05-22T09:01:11.372Z,9.55
2023-05-22T09:02:43.995Z,7.40
2023-05-22T09:04:16.207Z,8.50
2023-05-22T09:05:49.816Z,9.13
2023-05-22T09:07:22.539Z,8.77
2023-05-22T09:08:54.871Z,9.95
2023-05-22T09:10:27.091Z,9.13
2023-05-22T09:11:59.419Z,9.40
2023-05-22T09:13:32.272Z,9.57
2023-05-22T09:15:10.685Z,9.10
2023-05-22T09:16:47.440Z,9.43
2023-05-22T09:18:19.998Z,10.85
2023-05-22T09:19:52.134Z,8.57
2023-05-22T09:21:30.202Z,8.60
2023-05-22T09:23:03.056Z,9.18
2023-05-22T09:24:42.896Z,11.07
2023-05-22T09:26:15.097Z,10.85
2023-05-22T09:27:48.124Z,10.23
2023-05-22T09:29:20.249Z,9.20
2023-05-22T09:30:54.095Z,8.98
2023-05-22T09:32:29.929Z,9.35
2023-05-22T09:34:02.303Z,8.38
2023-05-22T09:35:36.059Z,8.93
2023-05-22T09:37:08.330Z,7.72
2023-05-22T09:38:40.582Z,8.80
2023-05-22T09:40:14.677Z,8.18
2023-05-22T09:41:46.918Z,9.32
2023-05-22T09:43:19.229Z,7.38
2023-05-22T09:44:52.143Z,12.88
2023-05-22T09:46:24.332Z,9.75
2023-05-22T09:48:00.644Z,9.48
2023-05-22T09:49:37.449Z,10.45
2023-05-22T09:51:11.113Z,8.27
2023-05-22T09:52:45.271Z,8.48
2023-05-22T09:54:20.247Z,8.00
2023-05-22T09:57:34.558Z,8.05
2023-05-22T09:59:09.287Z,8.02
2023-05-22T10:00:42.388Z,9.30
2023-05-22T10:03:49.569Z,9.55
2023-05-22T10:05:22.536Z,9.13
2023-05-22T10:06:55.436Z,8.82
2023-05-22T10:08:35.101Z,8.85
2023-05-22T10:10:12.752Z,8.65
2023-05-22T10:11:45.773Z,7.43
2023-05-22T10:13:18.138Z,10.15
2023-05-22T10:14:50.778Z,10.60
2023-05-22T10:16:23.037Z,7.70
2023-05-22T10:17:55.672Z,8.52
2023-05-22T10:19:29.895Z,7.75
2023-05-22T10:21:03.114Z,8.38
2023-05-22T10:24:08.652Z,9.20
2023-05-22T10:25:41.185Z,9.45
2023-05-22T10:27:13.332Z,9.98
2023-05-22T10:28:53.946Z,8.43
2023-05-22T10:30:29.186Z,8.38
2023-05-22T10:32:10.219Z,9.43
2023-05-22T10:33:45.783Z,8.98
2023-05-22T10:35:21.731Z,7.97
2023-05-22T10:37:17.255Z,9.10
2023-05-22T10:39:21.632Z,8.95
2023-05-22T10:40:54.356Z,9.85
2023-05-22T10:42:30.364Z,9.02
2023-05-22T10:44:03.368Z,10.85
2023-05-22T10:45:37.082Z,11.15
2023-05-22T10:47:13.840Z,8.20
2023-05-22T10:48:47.789Z,10.57
2023-05-22T10:50:19.965Z,8.20
2023-05-22T10:51:58.565Z,9.18
2023-05-22T10:53:32.812Z,12.27
2023-05-22T10:56:47.417Z,9.18
2023-05-22T10:58:32.451Z,7.93
2023-05-22T11:00:19.687Z,10.18
2023-05-22T11:02:01.260Z,9.30
2023-05-22T11:03:53.246Z,9.18
2023-05-22T11:05:28.505Z,10.68
2023-05-22T11:07:08.120Z,8.68
2023-05-22T11:08:40.655Z,8.32
2023-05-22T11:10:12.815Z,11.23
2023-05-22T11:11:45.518Z,8.25
2023-05-22T11:13:18.261Z,7.38
2023-05-22T11:15:11.932Z,8.32
2023-05-22T11:16:44.309Z,9.50
2023-05-22T11:18:17.468Z,8.52
2023-05-22T11:21:30.112Z,8.98
2023-05-22T11:23:05.925Z,9.05
2023-05-22T11:24:38.101Z,8.10
2023-05-22T11:26:21.914Z,9.20
2023-05-22T11:27:54.941Z,12.95
2023-05-22T11:29:27.540Z,7.47
2023-05-22T11:31:00.609Z,8.60
2023-05-22T11:32:32.803Z,10.43
2023-05-22T11:34:05.049Z,9.65
2023-05-22T11:35:38.278Z,8.15
2023-05-22T11:38:43.908Z,8.93
2023-05-22T11:40:21.507Z,10.00
2023-05-22T11:41:53.986Z,7.80
2023-05-22T11:43:30.611Z,8.13
2023-05-22T11:45:03.587Z,8.45
2023-05-22T11:46:35.965Z,9.30
2023-05-22T11:48:09.219Z,9.82
2023-05-22T11:49:43.246Z,8.60
2023-05-22T11:51:20.088Z,9.57
2023-05-22T11:52:54.276Z,9.48
2023-05-22T11:54:26.471Z,12.13
2023-05-22T11:56:05.873Z,10.13
2023-05-22T11:57:38.703Z,10.13
2023-05-22T11:59:10.805Z,9.52
2023-05-22T12:00:43.840Z,8.57
2023-05-22T12:02:21.916Z,8.50
2023-05-22T12:03:55.394Z,9.43
2023-05-22T12:05:27.588Z,9.15
2023-05-22T12:07:00.255Z,10.05
2023-05-22T12:08:32.575Z,9.88
2023-05-22T12:10:07.628Z,8.77
2023-05-22T12:11:39.918Z,8.65
2023-05-22T12:13:12.429Z,7.97
2023-05-22T12:14:48.156Z,10.60
2023-05-22T12:16:24.179Z,8.98
2023-05-22T12:17:56.942Z,9.63
2023-05-22T12:19:29.558Z,8.80
2023-05-22T12:21:01.876Z,10.13
2023-05-22T12:22:34.016Z,9.38
2023-05-22T12:24:06.918Z,9.13
2023-05-22T12:25:39.123Z,8.88
2023-05-22T12:27:11.725Z,8.68
2023-05-22T12:28:44.342Z,8.05
2023-05-22T12:30:17.350Z,8.57
2023-05-22T12:31:50.022Z,8.80
2023-05-22T12:33:31.623Z,10.75
2023-05-22T12:35:03.846Z,9.43
2023-05-22T12:36:40.360Z,7.90
2023-05-22T12:38:13.881Z,9.73
2023-05-22T12:39:59.265Z,9.10
2023-05-22T12:41:31.405Z,10.07
2023-05-22T12:43:03.660Z,9.38
2023-05-22T12:44:42.590Z,9.10
2023-05-22T12:46:14.970Z,9.82
2023-05-22T12:47:47.346Z,9.15
2023-05-22T12:49:19.602Z,8.85
2023-05-22T12:50:51.795Z,8.40
2023-05-22T12:52:24.042Z,9.68
2023-05-22T12:53:57.285Z,8.05
2023-05-22T12:57:01.444Z,9.68
2023-05-22T12:58:33.623Z,8.23
2023-05-22T13:00:06.630Z,11.63
2023-05-22T13:01:38.805Z,8.88
2023-05-22T13:03:12.705Z,8.13
2023-05-22T13:04:44.946Z,8.65
2023-05-22T13:06:17.142Z,8.50
2023-05-22T13:07:49.558Z,8.85
2023-05-22T13:09:22.159Z,9.30
2023-05-22T13:10:54.916Z,8.13
2023-05-22T13:12:27.720Z,11.73
2023-05-22T13:13:59.877Z,9.55
2023-05-22T13:15:32.992Z,8.73
2023-05-22T13:17:05.400Z,9.13
2023-05-22T13:18:37.614Z,10.00
2023-05-22T13:21:45.246Z,9.95
2023-05-22T13:23:17.508Z,8.63
2023-05-22T13:24:49.730Z,8.93
2023-05-22T13:26:21.977Z,8.00
2023-05-22T13:27:54.169Z,8.68
2023-05-22T13:29:26.288Z,9.02
2023-05-22T13:30:58.492Z,12.02
2023-05-22T13:32:30.853Z,9.90
2023-05-22T13:34:03.386Z,8.48
2023-05-22T13:35:35.618Z,9.65
2023-05-22T13:37:08.612Z,12.25
2023-05-22T13:38:40.888Z,10.88
2023-05-22T13:40:13.414Z,10.70
2023-05-22T13:41:45.995Z,9.77
2023-05-22T13:43:18.182Z,11.32
2023-05-22T13:44:50.525Z,10.65
2023-05-22T13:46:23.195Z,9.27
2023-05-22T13:47:55.431Z,9.25
2023-05-22T13:49:28.424Z,9.52
2023-05-22T13:51:00.701Z,8.18
2023-05-22T13:52:32.910Z,7.90
2023-05-22T13:55:39.365Z,8.30
2023-05-22T13:57:11.645Z,9.35
2023-05-22T13:58:43.877Z,9.00
2023-05-22T14:00:16.715Z,8.45
2023-05-22T14:01:51.819Z,9.20
2023-05-22T14:03:24.146Z,10.57
2023-05-22T14:04:56.430Z,9.77
2023-05-22T14:06:28.672Z,11.82
2023-05-22T14:08:00.819Z,7.55
2023-05-22T14:09:32.998Z,8.40
2023-05-22T14:11:05.242Z,10.32
2023-05-22T14:12:37.353Z,10.02
2023-05-22T14:14:09.643Z,9.20
2023-05-22T14:15:42.948Z,11.98
2023-05-22T14:18:47.463Z,11.07
2023-05-22T14:20:19.735Z,16.60
2023-05-22T14:21:52.195Z,10.38
2023-05-22T14:23:24.437Z,8.52
2023-05-22T14:24:57.531Z,11.48
2023-05-22T14:26:29.786Z,8.88
2023-05-22T14:28:02.210Z,10.25
2023-05-22T14:29:34.370Z,9.77
2023-05-22T14:31:06.630Z,7.10
2023-05-22T14:32:38.894Z,8.47
2023-05-22T15:10:14.970Z,8.63
2023-05-22T15:11:49.630Z,8.67
2023-05-22T15:13:22.067Z,8.25
2023-05-22T15:14:54.205Z,10.50
2023-05-22T15:16:26.594Z,7.78
2023-05-22T15:18:02.957Z,8.45
2023-05-22T15:19:35.516Z,11.55
2023-05-22T15:21:07.895Z,10.95
2023-05-22T15:22:40.764Z,11.05
2023-05-22T15:24:13.783Z,9.52
2023-05-22T15:25:47.260Z,7.32
2023-05-22T15:27:19.447Z,8.82
2023-05-22T15:28:51.611Z,9.27
2023-05-22T15:30:23.922Z,12.10
2023-05-22T15:31:56.109Z,9.38
2023-05-22T15:33:28.263Z,9.93
2023-05-22T15:35:00.527Z,8.88
2023-05-22T15:36:33.276Z,9.23
2023-05-22T15:38:05.914Z,9.05
2023-05-22T15:39:38.153Z,8.18
2023-05-22T15:41:10.355Z,8.05
2023-05-22T15:42:42.558Z,7.78
2023-05-22T15:44:14.944Z,9.73
2023-05-22T15:45:48.940Z,8.93
2023-05-22T15:47:21.238Z,8.77
2023-05-22T15:48:53.550Z,10.70
2023-05-22T15:50:25.829Z,13.30
2023-05-22T15:51:59.004Z,8.43
2023-05-22T15:55:03.479Z,7.75
2023-05-22T15:56:35.736Z,8.70
2023-05-22T15:58:08.369Z,28.05
2023-05-22T15:59:40.505Z,41.70
2023-05-22T16:01:15.811Z,29.25
2023-05-22T16:02:48.949Z,32.08
2023-05-22T16:05:53.281Z,20.20
2023-05-22T16:07:25.514Z,23.80
2023-05-22T16:08:57.710Z,11.82
2023-05-22T16:10:30.037Z,18.63
2023-05-22T16:12:03.088Z,15.67
2023-05-22T16:13:35.521Z,9.13
2023-05-22T16:15:08.511Z,10.77
2023-05-22T16:16:41.302Z,9.82
2023-05-22T16:18:13.804Z,9.30
2023-05-22T16:19:45.923Z,8.13
2023-05-22T16:21:18.090Z,14.90
2023-05-22T16:22:50.372Z,9.40
2023-05-22T16:24:22.694Z,9.87
2023-05-22T16:25:54.923Z,12.13
2023-05-22T16:27:27.213Z,13.95
2023-05-22T16:28:59.406Z,8.33
2023-05-22T16:30:31.654Z,12.18
2023-05-22T16:32:04.405Z,9.38
2023-05-22T16:33:37.845Z,9.43
2023-05-22T16:36:42.236Z,9.05
2023-05-22T16:38:14.931Z,10.73
2023-05-22T16:39:47.693Z,9.77
2023-05-22T16:41:19.812Z,8.82
2023-05-22T16:44:31.956Z,8.48
2023-05-22T16:46:04.546Z,9.38
2023-05-22T16:47:36.843Z,8.52
2023-05-22T16:49:09.079Z,10.13
2023-05-22T16:50:42.912Z,11.30
2023-05-22T16:52:15.066Z,9.68
2023-05-22T16:53:47.343Z,10.70
2023-05-22T16:55:19.723Z,8.77
2023-05-22T16:56:51.990Z,8.57
2023-05-22T16:58:24.157Z,9.00
2023-05-22T16:59:57.826Z,9.60
2023-05-22T17:01:30.645Z,9.20
2023-05-22T17:03:03.589Z,8.30
2023-05-22T17:06:09.276Z,8.43
2023-05-22T17:07:41.716Z,8.52
2023-05-22T17:09:13.868Z,9.00
2023-05-22T17:10:46.065Z,5.93
2023-05-22T17:12:18.312Z,7.75
2023-05-22T17:13:50.612Z,6.60
2023-05-22T17:15:22.758Z,8.10
2023-05-22T17:18:38.181Z,8.20
2023-05-22T17:20:10.739Z,7.47
2023-05-22T17:21:43.613Z,7.93
2023-05-22T17:23:16.394Z,6.57
2023-05-22T17:24:49.563Z,6.88
2023-05-22T17:27:53.791Z,6.43
2023-05-22T17:29:27.971Z,8.60
2023-05-22T17:31:01.072Z,8.18
2023-05-22T17:32:33.596Z,8.73
2023-05-22T17:34:05.933Z,8.68
2023-05-22T17:35:38.394Z,7.80
2023-05-22T17:37:10.989Z,6.70
2023-05-22T17:38:43.127Z,8.68
2023-05-22T17:40:15.308Z,8.30
2023-05-22T17:41:47.484Z,9.82
2023-05-22T17:43:20.330Z,9.18
2023-05-22T17:44:52.440Z,8.48
2023-05-22T17:46:24.698Z,9.25
2023-05-22T17:47:57.021Z,8.20
2023-05-22T17:49:29.186Z,7.50
2023-05-22T17:51:01.515Z,7.97
2023-05-22T17:54:07.423Z,8.35
2023-05-22T17:57:12.115Z,8.55
2023-05-22T17:58:44.333Z,8.10
2023-05-22T18:00:20.023Z,7.63
2023-05-22T18:01:52.296Z,9.85
2023-05-22T18:03:24.697Z,8.48
2023-05-22T18:04:56.920Z,9.40
2023-05-22T18:06:29.739Z,8.32
2023-05-22T18:08:02.042Z,9.10
2023-05-22T18:09:34.372Z,7.07
2023-05-22T18:11:06.579Z,8.20
2023-05-22T18:12:38.791Z,11.05
2023-05-22T18:14:11.075Z,9.88
2023-05-22T18:15:43.294Z,7.75
2023-05-22T18:17:15.520Z,8.18
2023-05-22T18:18:47.877Z,8.05
2023-05-22T18:20:20.628Z,7.87
2023-05-22T18:23:31.928Z,9.05
2023-05-22T18:25:04.529Z,7.88
2023-05-22T18:26:36.755Z,7.32
2023-05-22T18:28:11.176Z,7.72
2023-05-22T18:29:43.514Z,8.73
2023-05-22T18:31:16.162Z,7.03
2023-05-22T18:32:48.416Z,8.75
2023-05-22T18:34:20.591Z,7.45
2023-05-22T18:35:53.178Z,8.95
2023-05-22T18:37:25.386Z,10.52
2023-05-22T18:38:57.540Z,7.43
2023-05-22T18:40:29.787Z,8.15
2023-05-22T18:42:02.019Z,7.55
2023-05-22T18:43:34.325Z,7.32
2023-05-22T18:45:07.509Z,8.35
2023-05-22T18:46:39.694Z,8.85
2023-05-22T18:48:12.169Z,7.70
2023-05-22T18:49:44.532Z,8.32
2023-05-22T18:51:17.133Z,8.07
2023-05-22T18:52:49.258Z,12.20
2023-05-22T18:54:21.465Z,7.20
2023-05-22T18:55:54.295Z,9.63
2023-05-22T18:57:26.563Z,15.13
2023-05-22T18:58:58.769Z,14.45
2023-05-22T19:00:31.234Z,11.07
2023-05-22T19:02:03.442Z,10.85
2023-05-22T19:03:35.692Z,8.05
2023-05-22T19:05:08.266Z,8.05
2023-05-22T19:06:42.515Z,9.45
2023-05-22T19:08:14.659Z,9.18
2023-05-22T19:09:46.871Z,9.80
2023-05-22T19:11:19.410Z,24.23
2023-05-22T19:12:51.555Z,21.63
2023-05-22T19:14:23.762Z,9.38
2023-05-22T19:15:57.648Z,12.95
2023-05-22T19:17:29.901Z,12.88
2023-05-22T19:19:02.204Z,18.15
2023-05-22T19:20:34.600Z,11.52
2023-05-22T19:22:06.885Z,12.63
2023-05-22T19:23:39.502Z,10.18
2023-05-22T19:25:11.750Z,12.23
2023-05-22T19:26:44.592Z,59.83
2023-05-22T19:28:17.149Z,30.27
2023-05-22T19:29:49.318Z,26.80
2023-05-22T19:31:21.772Z,34.20
2023-05-22T19:32:56.214Z,31.00
2023-05-22T19:34:28.409Z,27.17
2023-05-22T19:36:02.755Z,26.67
2023-05-22T19:37:34.938Z,20.75
2023-05-22T19:39:07.176Z,21.38
2023-05-22T19:40:39.788Z,18.17
2023-05-22T19:42:12.778Z,15.95
2023-05-22T19:43:45.383Z,14.32
2023-05-22T19:45:18.015Z,17.88
2023-05-22T19:46:50.291Z,15.82
2023-05-22T19:48:22.654Z,14.27
2023-05-22T19:49:54.930Z,13.38
2023-05-22T19:51:28.384Z,14.60
2023-05-22T19:53:00.602Z,13.88
2023-05-22T19:54:32.758Z,14.40
2023-05-22T19:56:05.047Z,14.50
2023-05-22T19:57:37.751Z,13.23
2023-05-22T19:59:09.930Z,13.43
2023-05-22T20:00:42.627Z,13.60
2023-05-22T20:02:14.974Z,13.13
2023-05-22T20:03:47.600Z,17.67
2023-05-22T20:05:19.920Z,24.35
2023-05-22T20:06:52.182Z,13.60
2023-05-22T20:08:25.935Z,12.32
2023-05-22T20:09:59.361Z,11.68
2023-05-22T20:11:31.641Z,11.98
2023-05-22T20:13:05.283Z,13.35
2023-05-22T20:14:37.917Z,12.23
2023-05-22T20:16:13.026Z,11.43
2023-05-22T20:17:47.941Z,11.20
2023-05-22T20:19:20.684Z,11.85
2023-05-22T20:20:52.954Z,10.18
2023-05-22T20:22:26.124Z,12.40
2023-05-22T20:23:58.429Z,10.50
2023-05-22T20:27:06.908Z,11.93
2023-05-22T20:28:39.121Z,11.05
2023-05-22T20:30:12.952Z,10.35
2023-05-22T20:31:49.004Z,10.57
2023-05-22T20:33:21.328Z,11.40
2023-05-22T20:34:55.646Z,11.17
2023-05-22T20:36:28.137Z,9.57
2023-05-22T20:38:03.555Z,11.63
2023-05-22T20:39:35.728Z,10.65
2023-05-22T20:41:09.785Z,9.27
2023-05-22T20:42:43.296Z,10.65
2023-05-22T20:44:18.313Z,9.60
2023-05-22T20:45:50.840Z,11.27
2023-05-22T20:47:23.082Z,8.57
2023-05-22T20:48:55.380Z,7.82
2023-05-22T20:50:27.705Z,10.32
2023-05-22T20:52:00.463Z,9.38
2023-05-22T20:53:32.671Z,9.23
2023-05-22T20:55:05.490Z,8.88
2023-05-22T20:56:38.080Z,8.82
2023-05-22T20:58:10.220Z,9.27
2023-05-22T21:01:25.564Z,9.63
2023-05-22T21:02:58.693Z,8.73
2023-05-22T21:04:30.990Z,7.63
2023-05-22T21:06:03.217Z,10.63
2023-05-22T21:07:35.522Z,8.05
2023-05-22T21:09:07.800Z,9.18
2023-05-22T21:10:40.314Z,8.57
2023-05-22T21:12:12.565Z,9.30
2023-05-22T21:13:45.133Z,7.75
2023-05-22T21:15:17.522Z,10.43
2023-05-22T21:16:49.627Z,8.70
2023-05-22T21:18:22.418Z,8.57
2023-05-22T21:19:54.550Z,9.65
2023-05-22T21:21:26.960Z,9.18
2023-05-22T21:22:59.099Z,8.33
2023-05-22T21:24:32.863Z,8.05
2023-05-22T21:26:05.025Z,8.43
2023-05-22T21:27:37.285Z,8.43
2023-05-22T21:29:12.390Z,8.55
2023-05-22T21:32:24.107Z,9.25
2023-05-22T21:33:56.469Z,10.70
2023-05-22T21:35:28.776Z,8.07
2023-05-22T21:37:00.970Z,9.68
2023-05-22T21:38:33.152Z,9.07
2023-05-22T21:40:05.844Z,9.23
2023-05-22T21:41:37.995Z,9.65
2023-05-22T21:43:10.146Z,9.20